• Join FlightAware (Why Join?)
  • Login
  • US Flag 
03:38AM EST


 

Airport Tracker/Info


-or-


 

Live Flight TrackerFlight Track Log ✈ ASQ4407 ✈ 08-Jun-2014 ✈ KORD - KMDT

Flight Track Log - Related Links

Times and Time Zones

All times are in EDT time to prevent confusion due to time zone crossing. See the ASQ4407 flight status page for this flight to view local times or setup timezone preferences in your user account.

Time Position Orientation Groundspeed Altitude Reporting Facility
EDT Latitude Longitude Course Direction KTS MPH feet Rate Location/Type
10:14AM 41.9833 -87.8167 90° East 173 199 4,000  Level Chicago TRACON
10:15AM 41.9953 -87.7047 82° East 234 269 7,000 2,286 Climbing Chicago Center
10:16AM 41.9500 -87.4641 90° East  Level FlightAware Approximate
10:16AM 41.9886 -87.5986 95° East 259 298 9,600  Level Chicago Center
10:17AM 41.9466 -87.3184 95° East  Level FlightAware Approximate
10:17AM 41.9797 -87.4867 96° East 298 343 10,700  Level Chicago Center
10:18AM 41.9362 -87.1731 95° East  Level FlightAware Approximate
10:18AM 41.9683 -87.3425 96° East 358 412 12,400  Level Chicago Center
10:19AM 41.9333 -87.0276 90° East  Level FlightAware Approximate
10:19AM 41.9572 -87.2050 96° East 364 419 14,000  Level Chicago Center
10:20AM 41.9458 -87.0625 96° East 381 438 15,600 1,935 Climbing Chicago Center
10:21AM 41.9483 -86.9100 89° East 378 435 18,000 1,935 Climbing Chicago Center
10:22AM 41.9489 -86.7933 90° East 365 420 19,600 1,355 Climbing Chicago Center
10:23AM 41.9519 -86.6353 88° East 378 435 20,800 1,258 Climbing Chicago Center
10:25AM 41.9539 -86.4844 89° East 401 461 22,200 2,177 Climbing Chicago Center
10:26AM 41.9539 -86.3394 90° East 387 445 25,300 2,274 Climbing Chicago Center
10:27AM 41.9547 -86.2078 89° East 359 413 26,900 1,210 Climbing Chicago Center
10:28AM 41.9389 -86.0383 97° East 381 438 27,800 726 Climbing Chicago Center
10:29AM 41.9247 -85.8853 97° East 408 470 28,400 581 Climbing Chicago Center
10:30AM 41.9100 -85.7250 97° East 425 489 29,000 581 Climbing Chicago Center
10:31AM 41.8950 -85.5583 97° East 443 510 29,600 532 Climbing Chicago Center
10:32AM 41.8772 -85.3853 98° East 456 525 30,100 581 Climbing Chicago Center
10:33AM 41.8606 -85.2083 97° East 470 541 30,800 1,161 Climbing Chicago Center
10:34AM 41.8425 -85.0361 98° East 465 535 32,500 1,403 Climbing Chicago Center
10:35AM 41.8253 -84.8689 98° East 454 522 33,700 1,235 Climbing Chicago Center
10:36AM 41.8108 -84.7375 98° East 450 518 34,600 765 Climbing Cleveland Center
10:37AM 41.7939 -84.5728 98° East 448 516 35,000 194 Climbing Cleveland Center
10:38AM 41.7775 -84.3997 97° East 466 536 35,000  Level Cleveland Center
10:39AM 41.7767 -84.2025 90° East 486 559 35,000  Level Cleveland Center
10:40AM 41.7753 -84.0175 91° East 499 574 35,000  Level Cleveland Center
10:41AM 41.7736 -83.8378 91° East 491 565 35,000  Level Cleveland Center
10:42AM 41.7719 -83.6544 91° East 494 568 35,000  Level Cleveland Center
10:43AM 41.7531 -83.4444 97° East 481 554 35,000  Level Cleveland Center
10:44AM 41.7092 -83.2778 109° East 477 549 35,000  Level Cleveland Center
10:45AM 41.6631 -83.1106 110° East 482 555 35,000  Level Cleveland Center
10:46AM 41.6172 -82.9422 110° East 478 550 35,000  Level Cleveland Center
10:47AM 41.5714 -82.7769 110° East 476 548 35,000  Level Cleveland Center
10:48AM 41.5258 -82.6128 110° East 472 543 35,000  Level Cleveland Center
10:49AM 41.4719 -82.4217 111° Southeast 472 543 35,000  Level Cleveland Center
10:50AM 41.4267 -82.2597 110° East 466 536 35,000  Level Cleveland Center
10:51AM 41.3806 -82.0964 111° Southeast 466 536 35,000  Level Cleveland Center
10:52AM 41.3317 -81.9267 111° Southeast 466 536 35,000  Level Cleveland Center
10:53AM 41.2853 -81.7656 111° Southeast 466 536 35,000  Level Cleveland Center
10:54AM 41.2400 -81.6064 111° Southeast 466 536 35,000  Level Cleveland Center
10:55AM 41.1947 -81.4528 111° Southeast 451 519 35,000 -49 Level Cleveland Center
10:56AM 41.1483 -81.2947 111° Southeast 432 497 34,900 -97 Descending Cleveland Center
10:57AM 41.1072 -81.1539 111° Southeast 411 473 34,800 -532 Descending Cleveland Center
10:58AM 41.0556 -80.9817 112° Southeast 446 513 33,800 -871 Descending Cleveland Center
10:59AM 41.0072 -80.8192 111° Southeast 472 543 33,000 -919 Descending Cleveland Center
11:00AM 40.9594 -80.6594 112° Southeast 469 540 31,900 -1,452 Descending Cleveland Center
11:01AM 40.9122 -80.4981 111° Southeast 470 541 30,000 -1,500 Descending Cleveland Center
11:02AM 40.8597 -80.3292 112° Southeast 470 541 28,800 -1,016 Descending Cleveland Center
11:03AM 40.8167 -80.1667 109° East 472 543 27,900 -927 Descending Cleveland Center
11:04AM 40.7925 -79.9953 100° East 487 560 26,900 -927 Descending Cleveland Center
11:05AM 40.7639 -79.8133 102° East 501 577 26,000 -1,016 Descending Cleveland Center
11:06AM 40.7311 -79.6019 101° East 492 566 24,800 -1,016 Descending Cleveland Center
11:08AM 40.7033 -79.4322 102° East 477 549 23,900 -919 Descending Cleveland Center
11:09AM 40.6767 -79.2644 102° East 471 542 22,900 -927 Descending Cleveland Center
11:10AM 40.6494 -79.0981 102° East 468 539 22,000 -439 Descending Cleveland Center
11:11AM 40.6228 -78.9353 102° East 460 529 22,000 -581 Level Cleveland Center
11:12AM 40.5939 -78.7525 102° East 458 527 20,800 -1,742 Descending Cleveland Center
11:13AM 40.5689 -78.6006 102° East 437 503 18,400 -2,323 Descending Cleveland Center
11:14AM 40.5439 -78.4528 103° East 424 488 16,000 -2,098 Descending Cleveland Center
11:15AM 40.5203 -78.3108 102° East 407 468 14,100 -1,463 Descending Cleveland Center
11:16AM 40.4969 -78.1711 102° East 399 459 13,000 -1,113 Descending Cleveland Center
11:17AM 40.4681 -78.0069 103° East 394 453 11,800 -968 Descending Cleveland Center
11:18AM 40.4450 -77.8708 103° East 390 449 11,000 -390 Descending Cleveland Center
11:19AM 40.4219 -77.7383 103° East 380 437 11,000 -293 Level Cleveland Center
11:20AM 40.4017 -77.6222 103° East 331 381 10,400 -968 Descending Cleveland Center
11:21AM 40.3844 -77.5200 102° East 295 339 9,000 -1,073 Descending Cleveland Center
11:22AM 40.3619 -77.4025 104° East 284 327 8,200 -1,268 Descending Cleveland Center
11:23AM 40.3453 -77.3044 103° East 283 326 6,400 -1,744 Descending Cleveland Center
11:24AM 40.3289 -77.2239 105° East 286 329 4,800 -1,138 Descending New York Center
11:25AM 40.3094 -77.1214 104° East 269 310 4,200 -446 Descending New York Center
11:26AM 40.2956 -77.0303 101° East 264 304 3,900 -590 Descending New York Center
11:27AM 40.2642 -76.9567 119° Southeast 238 274 3,000 -545 Descending New York Center
11:28AM 40.2408 -76.8839 113° Southeast 238 274 2,800 3,025 Descending New York Center
11:29AM 40.2136 -76.8053 114° Southeast 238 274 9,000 3,126 Climbing New York Center
11:30AM 40.1861 -76.7294 115° Southeast 238 274 9,000  Level New York Center
11:31AM 40.1586 -76.6511 115° Southeast 238 274 9,000  Level New York Center
11:32AM 40.1531 -76.6369 117° Southeast 238 274 9,000  Level New York Center